sensor_id;sensor_type;location;lat;lon;timestamp;P1;durP1;ratioP1;P2;durP2;ratioP2
7961;SDS011;4026;43.652;24.906;2022-10-19T00:01:24;1.23;;;0.70;;
7961;SDS011;4026;43.652;24.906;2022-10-19T00:03:51;0.50;;;0.50;;
7961;SDS011;4026;43.652;24.906;2022-10-19T00:06:20;0.17;;;0.17;;
7961;SDS011;4026;43.652;24.906;2022-10-19T00:08:49;0.30;;;0.30;;
7961;SDS011;4026;43.652;24.906;2022-10-19T00:11:18;1.37;;;1.00;;
7961;SDS011;4026;43.652;24.906;2022-10-19T00:13:46;0.23;;;0.23;;
7961;SDS011;4026;43.652;24.906;2022-10-19T00:16:13;0.50;;;0.50;;
7961;SDS011;4026;43.652;24.906;2022-10-19T00:18:41;0.67;;;0.50;;
7961;SDS011;4026;43.652;24.906;2022-10-19T00:21:10;0.43;;;0.43;;
7961;SDS011;4026;43.652;24.906;2022-10-19T00:23:38;0.30;;;0.30;;
7961;SDS011;4026;43.652;24.906;2022-10-19T00:26:05;0.87;;;0.87;;
7961;SDS011;4026;43.652;24.906;2022-10-19T00:28:34;0.23;;;0.23;;
7961;SDS011;4026;43.652;24.906;2022-10-19T00:31:01;0.50;;;0.50;;
7961;SDS011;4026;43.652;24.906;2022-10-19T00:33:29;0.37;;;0.37;;
7961;SDS011;4026;43.652;24.906;2022-10-19T00:35:56;0.67;;;0.67;;
7961;SDS011;4026;43.652;24.906;2022-10-19T00:38:23;1.03;;;0.50;;
7961;SDS011;4026;43.652;24.906;2022-10-19T00:40:50;0.40;;;0.40;;
7961;SDS011;4026;43.652;24.906;2022-10-19T00:43:17;0.53;;;0.53;;
7961;SDS011;4026;43.652;24.906;2022-10-19T00:45:47;0.63;;;0.63;;
7961;SDS011;4026;43.652;24.906;2022-10-19T00:48:16;0.23;;;0.23;;
7961;SDS011;4026;43.652;24.906;2022-10-19T00:50:52;0.57;;;0.57;;
7961;SDS011;4026;43.652;24.906;2022-10-19T00:53:21;0.57;;;0.57;;
7961;SDS011;4026;43.652;24.906;2022-10-19T00:55:51;1.43;;;0.70;;
7961;SDS011;4026;43.652;24.906;2022-10-19T00:58:18;0.60;;;0.60;;
7961;SDS011;4026;43.652;24.906;2022-10-19T01:00:45;0.27;;;0.27;;
7961;SDS011;4026;43.652;24.906;2022-10-19T01:03:13;0.30;;;0.30;;
7961;SDS011;4026;43.652;24.906;2022-10-19T01:05:40;0.67;;;0.67;;
7961;SDS011;4026;43.652;24.906;2022-10-19T01:08:07;0.30;;;0.30;;
7961;SDS011;4026;43.652;24.906;2022-10-19T01:10:37;0.40;;;0.40;;
7961;SDS011;4026;43.652;24.906;2022-10-19T01:13:13;0.40;;;0.40;;
7961;SDS011;4026;43.652;24.906;2022-10-19T01:15:53;0.40;;;0.40;;
7961;SDS011;4026;43.652;24.906;2022-10-19T01:18:26;0.50;;;0.50;;
7961;SDS011;4026;43.652;24.906;2022-10-19T01:21:04;0.20;;;0.20;;
7961;SDS011;4026;43.652;24.906;2022-10-19T01:23:49;0.30;;;0.30;;
7961;SDS011;4026;43.652;24.906;2022-10-19T01:26:48;0.10;;;0.10;;
7961;SDS011;4026;43.652;24.906;2022-10-19T01:29:36;0.30;;;0.30;;
7961;SDS011;4026;43.652;24.906;2022-10-19T01:32:22;0.90;;;0.83;;
7961;SDS011;4026;43.652;24.906;2022-10-19T01:34:56;0.50;;;0.50;;
7961;SDS011;4026;43.652;24.906;2022-10-19T01:37:32;0.60;;;0.60;;
7961;SDS011;4026;43.652;24.906;2022-10-19T01:40:06;0.43;;;0.43;;
7961;SDS011;4026;43.652;24.906;2022-10-19T01:42:40;0.43;;;0.43;;
7961;SDS011;4026;43.652;24.906;2022-10-19T01:45:13;1.40;;;0.60;;
7961;SDS011;4026;43.652;24.906;2022-10-19T01:47:45;0.40;;;0.40;;
7961;SDS011;4026;43.652;24.906;2022-10-19T01:50:20;0.60;;;0.60;;
7961;SDS011;4026;43.652;24.906;2022-10-19T01:52:52;0.70;;;0.30;;
7961;SDS011;4026;43.652;24.906;2022-10-19T01:55:20;0.20;;;0.20;;
7961;SDS011;4026;43.652;24.906;2022-10-19T01:57:51;0.20;;;0.20;;
7961;SDS011;4026;43.652;24.906;2022-10-19T02:00:24;0.50;;;0.50;;
7961;SDS011;4026;43.652;24.906;2022-10-19T02:02:52;0.37;;;0.37;;
7961;SDS011;4026;43.652;24.906;2022-10-19T02:05:21;0.20;;;0.20;;
7961;SDS011;4026;43.652;24.906;2022-10-19T02:07:55;0.30;;;0.30;;
7961;SDS011;4026;43.652;24.906;2022-10-19T02:10:25;0.50;;;0.50;;
7961;SDS011;4026;43.652;24.906;2022-10-19T02:12:54;0.30;;;0.30;;
7961;SDS011;4026;43.652;24.906;2022-10-19T02:15:24;1.10;;;0.87;;
7961;SDS011;4026;43.652;24.906;2022-10-19T02:17:54;0.50;;;0.50;;
7961;SDS011;4026;43.652;24.906;2022-10-19T02:20:25;0.40;;;0.40;;
7961;SDS011;4026;43.652;24.906;2022-10-19T02:22:53;0.20;;;0.20;;
7961;SDS011;4026;43.652;24.906;2022-10-19T02:25:20;0.53;;;0.33;;
7961;SDS011;4026;43.652;24.906;2022-10-19T02:27:48;0.40;;;0.30;;
7961;SDS011;4026;43.652;24.906;2022-10-19T02:30:16;0.63;;;0.50;;
7961;SDS011;4026;43.652;24.906;2022-10-19T02:32:47;0.40;;;0.40;;
7961;SDS011;4026;43.652;24.906;2022-10-19T02:35:15;0.60;;;0.60;;
7961;SDS011;4026;43.652;24.906;2022-10-19T02:37:42;0.33;;;0.33;;
7961;SDS011;4026;43.652;24.906;2022-10-19T02:40:11;0.40;;;0.40;;
7961;SDS011;4026;43.652;24.906;2022-10-19T02:42:39;0.20;;;0.20;;
7961;SDS011;4026;43.652;24.906;2022-10-19T02:45:10;0.73;;;0.70;;
7961;SDS011;4026;43.652;24.906;2022-10-19T02:47:41;0.20;;;0.20;;
7961;SDS011;4026;43.652;24.906;2022-10-19T02:50:14;0.40;;;0.40;;
7961;SDS011;4026;43.652;24.906;2022-10-19T02:52:44;0.83;;;0.83;;
7961;SDS011;4026;43.652;24.906;2022-10-19T02:55:11;0.30;;;0.30;;
7961;SDS011;4026;43.652;24.906;2022-10-19T02:57:38;0.83;;;0.70;;
7961;SDS011;4026;43.652;24.906;2022-10-19T03:00:05;0.23;;;0.23;;
7961;SDS011;4026;43.652;24.906;2022-10-19T03:02:34;0.57;;;0.57;;
7961;SDS011;4026;43.652;24.906;2022-10-19T03:05:00;0.20;;;0.20;;
7961;SDS011;4026;43.652;24.906;2022-10-19T03:07:29;0.30;;;0.30;;
7961;SDS011;4026;43.652;24.906;2022-10-19T03:09:56;0.53;;;0.53;;
7961;SDS011;4026;43.652;24.906;2022-10-19T03:12:22;0.87;;;0.60;;
7961;SDS011;4026;43.652;24.906;2022-10-19T03:14:49;0.60;;;0.60;;
7961;SDS011;4026;43.652;24.906;2022-10-19T03:17:16;0.87;;;0.87;;
7961;SDS011;4026;43.652;24.906;2022-10-19T03:19:43;0.50;;;0.50;;
7961;SDS011;4026;43.652;24.906;2022-10-19T03:22:10;0.30;;;0.30;;
7961;SDS011;4026;43.652;24.906;2022-10-19T03:24:40;0.30;;;0.30;;
7961;SDS011;4026;43.652;24.906;2022-10-19T03:27:06;0.10;;;0.10;;
7961;SDS011;4026;43.652;24.906;2022-10-19T03:29:33;0.33;;;0.33;;
7961;SDS011;4026;43.652;24.906;2022-10-19T03:32:00;2.53;;;1.33;;
7961;SDS011;4026;43.652;24.906;2022-10-19T03:34:27;0.20;;;0.20;;
7961;SDS011;4026;43.652;24.906;2022-10-19T03:36:54;0.27;;;0.27;;
7961;SDS011;4026;43.652;24.906;2022-10-19T03:39:20;2.43;;;0.50;;
7961;SDS011;4026;43.652;24.906;2022-10-19T03:41:49;0.37;;;0.37;;
7961;SDS011;4026;43.652;24.906;2022-10-19T03:44:16;0.60;;;0.60;;
7961;SDS011;4026;43.652;24.906;2022-10-19T03:46:42;1.33;;;0.60;;
7961;SDS011;4026;43.652;24.906;2022-10-19T03:49:09;0.23;;;0.23;;
7961;SDS011;4026;43.652;24.906;2022-10-19T03:51:37;0.10;;;0.10;;
7961;SDS011;4026;43.652;24.906;2022-10-19T03:54:04;2.93;;;0.97;;
7961;SDS011;4026;43.652;24.906;2022-10-19T03:56:33;0.20;;;0.20;;
7961;SDS011;4026;43.652;24.906;2022-10-19T03:59:02;0.83;;;0.40;;
7961;SDS011;4026;43.652;24.906;2022-10-19T04:01:31;0.40;;;0.40;;
7961;SDS011;4026;43.652;24.906;2022-10-19T04:04:00;0.30;;;0.30;;
7961;SDS011;4026;43.652;24.906;2022-10-19T04:06:29;0.40;;;0.40;;
7961;SDS011;4026;43.652;24.906;2022-10-19T04:08:58;0.40;;;0.40;;
7961;SDS011;4026;43.652;24.906;2022-10-19T04:11:26;0.60;;;0.60;;
7961;SDS011;4026;43.652;24.906;2022-10-19T04:13:55;0.23;;;0.23;;
7961;SDS011;4026;43.652;24.906;2022-10-19T04:16:24;0.10;;;0.10;;
7961;SDS011;4026;43.652;24.906;2022-10-19T04:18:52;0.30;;;0.30;;
7961;SDS011;4026;43.652;24.906;2022-10-19T04:21:20;0.40;;;0.40;;
7961;SDS011;4026;43.652;24.906;2022-10-19T04:23:49;0.40;;;0.40;;
7961;SDS011;4026;43.652;24.906;2022-10-19T04:26:17;0.40;;;0.40;;
7961;SDS011;4026;43.652;24.906;2022-10-19T04:28:44;0.60;;;0.60;;
7961;SDS011;4026;43.652;24.906;2022-10-19T04:31:11;0.53;;;0.43;;
7961;SDS011;4026;43.652;24.906;2022-10-19T04:33:39;0.33;;;0.33;;
7961;SDS011;4026;43.652;24.906;2022-10-19T04:36:08;0.10;;;0.10;;
7961;SDS011;4026;43.652;24.906;2022-10-19T04:38:36;0.40;;;0.40;;
7961;SDS011;4026;43.652;24.906;2022-10-19T04:41:04;0.30;;;0.30;;
7961;SDS011;4026;43.652;24.906;2022-10-19T04:43:33;2.73;;;0.83;;
7961;SDS011;4026;43.652;24.906;2022-10-19T04:46:03;0.10;;;0.10;;
7961;SDS011;4026;43.652;24.906;2022-10-19T04:48:32;0.37;;;0.37;;
7961;SDS011;4026;43.652;24.906;2022-10-19T04:51:02;0.10;;;0.10;;
7961;SDS011;4026;43.652;24.906;2022-10-19T04:53:30;0.23;;;0.23;;
7961;SDS011;4026;43.652;24.906;2022-10-19T04:55:57;0.20;;;0.20;;
7961;SDS011;4026;43.652;24.906;2022-10-19T04:58:24;0.50;;;0.30;;
7961;SDS011;4026;43.652;24.906;2022-10-19T05:00:51;0.53;;;0.53;;
7961;SDS011;4026;43.652;24.906;2022-10-19T05:03:18;0.37;;;0.37;;
7961;SDS011;4026;43.652;24.906;2022-10-19T05:05:44;0.23;;;0.23;;
7961;SDS011;4026;43.652;24.906;2022-10-19T05:08:13;0.10;;;0.10;;
7961;SDS011;4026;43.652;24.906;2022-10-19T05:10:39;0.30;;;0.30;;
7961;SDS011;4026;43.652;24.906;2022-10-19T05:13:06;1.17;;;1.07;;
7961;SDS011;4026;43.652;24.906;2022-10-19T05:15:33;1.13;;;0.60;;
7961;SDS011;4026;43.652;24.906;2022-10-19T05:18:00;0.27;;;0.27;;
7961;SDS011;4026;43.652;24.906;2022-10-19T05:20:27;0.63;;;0.63;;
7961;SDS011;4026;43.652;24.906;2022-10-19T05:22:53;0.40;;;0.40;;
7961;SDS011;4026;43.652;24.906;2022-10-19T05:25:22;0.70;;;0.50;;
7961;SDS011;4026;43.652;24.906;2022-10-19T05:27:51;0.20;;;0.20;;
7961;SDS011;4026;43.652;24.906;2022-10-19T05:30:18;0.23;;;0.23;;
7961;SDS011;4026;43.652;24.906;2022-10-19T05:32:46;0.37;;;0.37;;
7961;SDS011;4026;43.652;24.906;2022-10-19T05:35:14;0.80;;;0.73;;
7961;SDS011;4026;43.652;24.906;2022-10-19T05:37:41;0.30;;;0.30;;
7961;SDS011;4026;43.652;24.906;2022-10-19T05:40:08;0.20;;;0.20;;
7961;SDS011;4026;43.652;24.906;2022-10-19T05:42:37;0.10;;;0.10;;
7961;SDS011;4026;43.652;24.906;2022-10-19T05:45:04;0.27;;;0.27;;
7961;SDS011;4026;43.652;24.906;2022-10-19T05:47:32;2.47;;;0.27;;
7961;SDS011;4026;43.652;24.906;2022-10-19T05:50:00;0.57;;;0.43;;
7961;SDS011;4026;43.652;24.906;2022-10-19T05:52:26;0.83;;;0.83;;
7961;SDS011;4026;43.652;24.906;2022-10-19T05:54:53;0.40;;;0.40;;
7961;SDS011;4026;43.652;24.906;2022-10-19T05:57:22;0.27;;;0.27;;
7961;SDS011;4026;43.652;24.906;2022-10-19T05:59:50;0.37;;;0.37;;
7961;SDS011;4026;43.652;24.906;2022-10-19T06:02:20;1.13;;;0.70;;
7961;SDS011;4026;43.652;24.906;2022-10-19T06:04:47;0.10;;;0.10;;
7961;SDS011;4026;43.652;24.906;2022-10-19T06:07:14;0.63;;;0.43;;
7961;SDS011;4026;43.652;24.906;2022-10-19T06:09:41;0.90;;;0.60;;
7961;SDS011;4026;43.652;24.906;2022-10-19T06:12:08;1.60;;;0.50;;
7961;SDS011;4026;43.652;24.906;2022-10-19T06:14:34;0.10;;;0.10;;
7961;SDS011;4026;43.652;24.906;2022-10-19T06:17:03;0.57;;;0.37;;
7961;SDS011;4026;43.652;24.906;2022-10-19T06:19:30;1.33;;;0.60;;
7961;SDS011;4026;43.652;24.906;2022-10-19T06:21:57;0.30;;;0.30;;
7961;SDS011;4026;43.652;24.906;2022-10-19T06:24:24;0.47;;;0.47;;
7961;SDS011;4026;43.652;24.906;2022-10-19T06:26:51;0.40;;;0.40;;
7961;SDS011;4026;43.652;24.906;2022-10-19T06:29:17;0.40;;;0.40;;
7961;SDS011;4026;43.652;24.906;2022-10-19T06:31:44;0.63;;;0.63;;
7961;SDS011;4026;43.652;24.906;2022-10-19T06:34:12;0.97;;;0.87;;
7961;SDS011;4026;43.652;24.906;2022-10-19T06:36:39;0.50;;;0.43;;
7961;SDS011;4026;43.652;24.906;2022-10-19T06:39:06;0.50;;;0.50;;
7961;SDS011;4026;43.652;24.906;2022-10-19T06:41:33;0.90;;;0.80;;
7961;SDS011;4026;43.652;24.906;2022-10-19T06:44:00;0.50;;;0.50;;
7961;SDS011;4026;43.652;24.906;2022-10-19T06:46:27;0.30;;;0.30;;
7961;SDS011;4026;43.652;24.906;2022-10-19T06:48:54;0.43;;;0.43;;
7961;SDS011;4026;43.652;24.906;2022-10-19T06:51:24;0.50;;;0.50;;
7961;SDS011;4026;43.652;24.906;2022-10-19T06:53:52;1.10;;;0.80;;
7961;SDS011;4026;43.652;24.906;2022-10-19T06:56:19;0.50;;;0.50;;
7961;SDS011;4026;43.652;24.906;2022-10-19T06:58:48;0.63;;;0.60;;
7961;SDS011;4026;43.652;24.906;2022-10-19T07:01:15;0.93;;;0.70;;
7961;SDS011;4026;43.652;24.906;2022-10-19T07:03:42;0.70;;;0.70;;
7961;SDS011;4026;43.652;24.906;2022-10-19T07:06:10;0.50;;;0.50;;
7961;SDS011;4026;43.652;24.906;2022-10-19T07:08:40;1.13;;;0.60;;
7961;SDS011;4026;43.652;24.906;2022-10-19T07:11:09;1.30;;;1.13;;
7961;SDS011;4026;43.652;24.906;2022-10-19T07:13:37;0.77;;;0.60;;
7961;SDS011;4026;43.652;24.906;2022-10-19T07:16:04;1.00;;;0.97;;
7961;SDS011;4026;43.652;24.906;2022-10-19T07:18:35;0.97;;;0.93;;
7961;SDS011;4026;43.652;24.906;2022-10-19T07:21:04;1.23;;;0.80;;
7961;SDS011;4026;43.652;24.906;2022-10-19T07:23:32;0.97;;;0.90;;
7961;SDS011;4026;43.652;24.906;2022-10-19T07:26:03;0.67;;;0.67;;
7961;SDS011;4026;43.652;24.906;2022-10-19T07:28:32;0.83;;;0.80;;
7961;SDS011;4026;43.652;24.906;2022-10-19T07:31:03;0.77;;;0.70;;
7961;SDS011;4026;43.652;24.906;2022-10-19T07:33:30;0.93;;;0.80;;
7961;SDS011;4026;43.652;24.906;2022-10-19T07:35:58;1.63;;;1.10;;
7961;SDS011;4026;43.652;24.906;2022-10-19T07:38:25;1.03;;;0.93;;
7961;SDS011;4026;43.652;24.906;2022-10-19T07:40:58;0.40;;;0.40;;
7961;SDS011;4026;43.652;24.906;2022-10-19T07:43:27;1.10;;;0.97;;
7961;SDS011;4026;43.652;24.906;2022-10-19T07:45:58;1.67;;;1.10;;
7961;SDS011;4026;43.652;24.906;2022-10-19T07:48:26;3.03;;;1.50;;
7961;SDS011;4026;43.652;24.906;2022-10-19T07:50:52;1.00;;;0.90;;
7961;SDS011;4026;43.652;24.906;2022-10-19T07:53:19;0.97;;;0.60;;
7961;SDS011;4026;43.652;24.906;2022-10-19T07:55:46;1.50;;;1.00;;
7961;SDS011;4026;43.652;24.906;2022-10-19T07:58:13;1.33;;;1.03;;
7961;SDS011;4026;43.652;24.906;2022-10-19T08:00:41;1.13;;;0.70;;
7961;SDS011;4026;43.652;24.906;2022-10-19T08:03:08;0.90;;;0.90;;
7961;SDS011;4026;43.652;24.906;2022-10-19T08:05:35;1.43;;;1.10;;
7961;SDS011;4026;43.652;24.906;2022-10-19T08:08:03;1.20;;;0.97;;
7961;SDS011;4026;43.652;24.906;2022-10-19T08:10:30;2.57;;;1.20;;
7961;SDS011;4026;43.652;24.906;2022-10-19T08:12:57;1.00;;;0.93;;
7961;SDS011;4026;43.652;24.906;2022-10-19T08:15:24;1.23;;;1.00;;
7961;SDS011;4026;43.652;24.906;2022-10-19T08:17:54;1.60;;;1.07;;
7961;SDS011;4026;43.652;24.906;2022-10-19T08:20:21;1.07;;;0.97;;
7961;SDS011;4026;43.652;24.906;2022-10-19T08:22:47;1.93;;;1.07;;
7961;SDS011;4026;43.652;24.906;2022-10-19T08:25:14;1.83;;;1.20;;
7961;SDS011;4026;43.652;24.906;2022-10-19T08:27:41;2.43;;;1.40;;
7961;SDS011;4026;43.652;24.906;2022-10-19T08:30:08;1.73;;;1.30;;
7961;SDS011;4026;43.652;24.906;2022-10-19T08:32:35;1.77;;;1.13;;
7961;SDS011;4026;43.652;24.906;2022-10-19T08:35:04;0.73;;;0.73;;
7961;SDS011;4026;43.652;24.906;2022-10-19T08:37:32;1.27;;;1.10;;
7961;SDS011;4026;43.652;24.906;2022-10-19T08:39:58;2.20;;;1.40;;
7961;SDS011;4026;43.652;24.906;2022-10-19T08:42:27;0.83;;;0.77;;
7961;SDS011;4026;43.652;24.906;2022-10-19T08:45:12;1.93;;;1.30;;
7961;SDS011;4026;43.652;24.906;2022-10-19T08:47:57;2.47;;;1.30;;
7961;SDS011;4026;43.652;24.906;2022-10-19T08:50:30;2.43;;;1.10;;
7961;SDS011;4026;43.652;24.906;2022-10-19T08:53:03;1.33;;;1.23;;
7961;SDS011;4026;43.652;24.906;2022-10-19T08:55:34;1.07;;;0.90;;
7961;SDS011;4026;43.652;24.906;2022-10-19T08:58:15;1.20;;;1.10;;
7961;SDS011;4026;43.652;24.906;2022-10-19T09:01:05;2.03;;;1.33;;
7961;SDS011;4026;43.652;24.906;2022-10-19T09:03:39;1.90;;;1.20;;
7961;SDS011;4026;43.652;24.906;2022-10-19T09:06:15;1.93;;;1.30;;
7961;SDS011;4026;43.652;24.906;2022-10-19T09:08:49;1.37;;;1.17;;
7961;SDS011;4026;43.652;24.906;2022-10-19T09:11:19;0.77;;;0.77;;
7961;SDS011;4026;43.652;24.906;2022-10-19T09:13:50;1.10;;;1.00;;
7961;SDS011;4026;43.652;24.906;2022-10-19T09:16:24;2.27;;;1.20;;
7961;SDS011;4026;43.652;24.906;2022-10-19T09:18:51;1.03;;;0.93;;
7961;SDS011;4026;43.652;24.906;2022-10-19T09:21:20;2.80;;;1.37;;
7961;SDS011;4026;43.652;24.906;2022-10-19T09:23:50;1.20;;;1.10;;
7961;SDS011;4026;43.652;24.906;2022-10-19T09:26:24;2.30;;;1.00;;
7961;SDS011;4026;43.652;24.906;2022-10-19T09:28:54;1.50;;;1.20;;
7961;SDS011;4026;43.652;24.906;2022-10-19T09:31:24;1.40;;;1.10;;
7961;SDS011;4026;43.652;24.906;2022-10-19T09:33:56;1.50;;;1.07;;
7961;SDS011;4026;43.652;24.906;2022-10-19T09:36:30;0.87;;;0.80;;
7961;SDS011;4026;43.652;24.906;2022-10-19T09:39:02;1.80;;;0.82;;
7961;SDS011;4026;43.652;24.906;2022-10-19T09:41:29;1.00;;;0.90;;
7961;SDS011;4026;43.652;24.906;2022-10-19T09:43:57;0.77;;;0.77;;
7961;SDS011;4026;43.652;24.906;2022-10-19T09:46:33;0.80;;;0.80;;
7961;SDS011;4026;43.652;24.906;2022-10-19T09:49:07;1.13;;;0.98;;
7961;SDS011;4026;43.652;24.906;2022-10-19T09:51:45;0.70;;;0.70;;
7961;SDS011;4026;43.652;24.906;2022-10-19T09:54:26;0.77;;;0.65;;
7961;SDS011;4026;43.652;24.906;2022-10-19T09:56:58;1.15;;;0.82;;
7961;SDS011;4026;43.652;24.906;2022-10-19T09:59:27;1.63;;;0.98;;
7961;SDS011;4026;43.652;24.906;2022-10-19T10:01:59;0.80;;;0.77;;
7961;SDS011;4026;43.652;24.906;2022-10-19T10:04:35;0.80;;;0.77;;
7961;SDS011;4026;43.652;24.906;2022-10-19T10:07:04;1.83;;;1.15;;
7961;SDS011;4026;43.652;24.906;2022-10-19T10:09:30;2.33;;;1.20;;
7961;SDS011;4026;43.652;24.906;2022-10-19T10:12:08;1.10;;;1.00;;
7961;SDS011;4026;43.652;24.906;2022-10-19T10:14:39;1.20;;;1.02;;
7961;SDS011;4026;43.652;24.906;2022-10-19T10:17:06;0.85;;;0.82;;
7961;SDS011;4026;43.652;24.906;2022-10-19T10:19:48;0.68;;;0.68;;
7961;SDS011;4026;43.652;24.906;2022-10-19T10:22:25;1.40;;;0.93;;
7961;SDS011;4026;43.652;24.906;2022-10-19T10:24:54;0.60;;;0.60;;
7961;SDS011;4026;43.652;24.906;2022-10-19T10:27:27;1.38;;;1.00;;
7961;SDS011;4026;43.652;24.906;2022-10-19T10:29:56;1.35;;;1.13;;
7961;SDS011;4026;43.652;24.906;2022-10-19T10:32:23;1.55;;;1.10;;
7961;SDS011;4026;43.652;24.906;2022-10-19T10:34:56;0.88;;;0.77;;
7961;SDS011;4026;43.652;24.906;2022-10-19T10:37:29;1.08;;;0.90;;
7961;SDS011;4026;43.652;24.906;2022-10-19T10:40:02;0.90;;;0.80;;
7961;SDS011;4026;43.652;24.906;2022-10-19T10:42:33;0.82;;;0.73;;
7961;SDS011;4026;43.652;24.906;2022-10-19T10:45:08;1.60;;;1.17;;
7961;SDS011;4026;43.652;24.906;2022-10-19T10:47:42;1.20;;;0.90;;
7961;SDS011;4026;43.652;24.906;2022-10-19T10:50:14;0.80;;;0.80;;
7961;SDS011;4026;43.652;24.906;2022-10-19T10:52:56;1.73;;;1.35;;
7961;SDS011;4026;43.652;24.906;2022-10-19T10:55:25;1.10;;;1.00;;
7961;SDS011;4026;43.652;24.906;2022-10-19T10:57:53;0.77;;;0.77;;
7961;SDS011;4026;43.652;24.906;2022-10-19T11:00:30;1.38;;;0.77;;
7961;SDS011;4026;43.652;24.906;2022-10-19T11:02:59;0.82;;;0.73;;
7961;SDS011;4026;43.652;24.906;2022-10-19T11:05:33;0.88;;;0.80;;
7961;SDS011;4026;43.652;24.906;2022-10-19T11:08:08;1.25;;;0.95;;
7961;SDS011;4026;43.652;24.906;2022-10-19T11:10:45;1.13;;;1.02;;
7961;SDS011;4026;43.652;24.906;2022-10-19T11:13:20;0.95;;;0.68;;
7961;SDS011;4026;43.652;24.906;2022-10-19T11:15:53;0.80;;;0.70;;
7961;SDS011;4026;43.652;24.906;2022-10-19T11:18:24;0.95;;;0.88;;
7961;SDS011;4026;43.652;24.906;2022-10-19T11:20:58;0.93;;;0.85;;
7961;SDS011;4026;43.652;24.906;2022-10-19T11:23:42;1.90;;;1.30;;
7961;SDS011;4026;43.652;24.906;2022-10-19T11:26:29;2.65;;;1.10;;
7961;SDS011;4026;43.652;24.906;2022-10-19T11:29:08;2.78;;;1.00;;
7961;SDS011;4026;43.652;24.906;2022-10-19T11:31:50;0.93;;;0.82;;
7961;SDS011;4026;43.652;24.906;2022-10-19T11:34:27;1.08;;;0.98;;
7961;SDS011;4026;43.652;24.906;2022-10-19T11:37:04;1.17;;;0.80;;
7961;SDS011;4026;43.652;24.906;2022-10-19T11:39:47;1.63;;;1.23;;
7961;SDS011;4026;43.652;24.906;2022-10-19T11:42:27;1.23;;;0.93;;
7961;SDS011;4026;43.652;24.906;2022-10-19T11:45:11;1.10;;;1.00;;
7961;SDS011;4026;43.652;24.906;2022-10-19T11:47:57;0.85;;;0.80;;
7961;SDS011;4026;43.652;24.906;2022-10-19T11:50:42;1.35;;;1.00;;
7961;SDS011;4026;43.652;24.906;2022-10-19T11:53:15;1.52;;;1.30;;
7961;SDS011;4026;43.652;24.906;2022-10-19T11:55:52;1.05;;;0.80;;
7961;SDS011;4026;43.652;24.906;2022-10-19T11:58:33;1.52;;;1.27;;
7961;SDS011;4026;43.652;24.906;2022-10-19T12:01:19;1.33;;;0.85;;
7961;SDS011;4026;43.652;24.906;2022-10-19T12:03:59;1.25;;;1.10;;
7961;SDS011;4026;43.652;24.906;2022-10-19T12:06:42;1.13;;;1.02;;
7961;SDS011;4026;43.652;24.906;2022-10-19T12:09:17;1.30;;;1.17;;
7961;SDS011;4026;43.652;24.906;2022-10-19T12:12:04;1.42;;;0.93;;
7961;SDS011;4026;43.652;24.906;2022-10-19T12:14:45;1.23;;;0.95;;
7961;SDS011;4026;43.652;24.906;2022-10-19T12:17:19;1.00;;;0.90;;
7961;SDS011;4026;43.652;24.906;2022-10-19T12:19:51;1.13;;;1.02;;
7961;SDS011;4026;43.652;24.906;2022-10-19T12:22:22;2.38;;;0.95;;
7961;SDS011;4026;43.652;24.906;2022-10-19T12:24:52;1.58;;;0.93;;
7961;SDS011;4026;43.652;24.906;2022-10-19T12:27:25;1.00;;;1.00;;
7961;SDS011;4026;43.652;24.906;2022-10-19T12:29:55;1.27;;;1.05;;
7961;SDS011;4026;43.652;24.906;2022-10-19T12:32:27;1.10;;;1.00;;
7961;SDS011;4026;43.652;24.906;2022-10-19T12:34:59;1.27;;;1.17;;
7961;SDS011;4026;43.652;24.906;2022-10-19T12:37:35;1.50;;;1.40;;
7961;SDS011;4026;43.652;24.906;2022-10-19T12:40:11;0.90;;;0.90;;
7961;SDS011;4026;43.652;24.906;2022-10-19T12:42:48;1.50;;;1.30;;
7961;SDS011;4026;43.652;24.906;2022-10-19T12:45:23;1.10;;;0.98;;
7961;SDS011;4026;43.652;24.906;2022-10-19T12:53:33;0.75;;;0.75;;
7961;SDS011;4026;43.652;24.906;2022-10-19T12:56:04;1.30;;;1.10;;
7961;SDS011;4026;43.652;24.906;2022-10-19T12:58:35;1.42;;;1.20;;
7961;SDS011;4026;43.652;24.906;2022-10-19T13:01:10;1.10;;;0.90;;
7961;SDS011;4026;43.652;24.906;2022-10-19T13:03:44;1.10;;;1.00;;
7961;SDS011;4026;43.652;24.906;2022-10-19T13:06:12;0.95;;;0.88;;
7961;SDS011;4026;43.652;24.906;2022-10-19T13:08:45;1.00;;;1.00;;
7961;SDS011;4026;43.652;24.906;2022-10-19T13:11:15;1.13;;;1.05;;
7961;SDS011;4026;43.652;24.906;2022-10-19T13:13:56;1.00;;;0.70;;
7961;SDS011;4026;43.652;24.906;2022-10-19T13:16:32;3.10;;;2.28;;
7961;SDS011;4026;43.652;24.906;2022-10-19T13:19:17;2.58;;;1.90;;
7961;SDS011;4026;43.652;24.906;2022-10-19T13:21:46;1.50;;;1.30;;
7961;SDS011;4026;43.652;24.906;2022-10-19T13:24:28;1.27;;;1.10;;
7961;SDS011;4026;43.652;24.906;2022-10-19T13:29:50;1.90;;;1.40;;
7961;SDS011;4026;43.652;24.906;2022-10-19T13:32:30;1.00;;;0.90;;
7961;SDS011;4026;43.652;24.906;2022-10-19T13:38:10;1.77;;;1.40;;
7961;SDS011;4026;43.652;24.906;2022-10-19T13:41:03;1.23;;;1.13;;
7961;SDS011;4026;43.652;24.906;2022-10-19T13:43:36;1.30;;;1.00;;
7961;SDS011;4026;43.652;24.906;2022-10-19T13:46:11;1.70;;;1.17;;
7961;SDS011;4026;43.652;24.906;2022-10-19T13:48:48;1.17;;;0.97;;
7961;SDS011;4026;43.652;24.906;2022-10-19T13:51:41;3.50;;;1.33;;
7961;SDS011;4026;43.652;24.906;2022-10-19T13:54:23;1.37;;;1.27;;
7961;SDS011;4026;43.652;24.906;2022-10-19T13:57:05;1.73;;;1.13;;
7961;SDS011;4026;43.652;24.906;2022-10-19T13:59:57;1.53;;;1.10;;
7961;SDS011;4026;43.652;24.906;2022-10-19T14:02:49;1.17;;;0.87;;
7961;SDS011;4026;43.652;24.906;2022-10-19T14:05:27;1.63;;;1.13;;
7961;SDS011;4026;43.652;24.906;2022-10-19T14:08:09;1.67;;;1.20;;
7961;SDS011;4026;43.652;24.906;2022-10-19T14:10:50;2.00;;;0.97;;
7961;SDS011;4026;43.652;24.906;2022-10-19T14:13:25;2.60;;;0.93;;
7961;SDS011;4026;43.652;24.906;2022-10-19T14:15:52;1.30;;;1.20;;
7961;SDS011;4026;43.652;24.906;2022-10-19T14:18:25;1.03;;;0.97;;
7961;SDS011;4026;43.652;24.906;2022-10-19T14:20:57;1.00;;;0.90;;
7961;SDS011;4026;43.652;24.906;2022-10-19T14:23:26;2.97;;;1.47;;
7961;SDS011;4026;43.652;24.906;2022-10-19T14:25:54;1.20;;;1.10;;
7961;SDS011;4026;43.652;24.906;2022-10-19T14:28:24;1.40;;;0.97;;
7961;SDS011;4026;43.652;24.906;2022-10-19T14:30:55;1.30;;;1.07;;
7961;SDS011;4026;43.652;24.906;2022-10-19T14:33:25;0.87;;;0.80;;
7961;SDS011;4026;43.652;24.906;2022-10-19T14:35:53;1.23;;;0.87;;
7961;SDS011;4026;43.652;24.906;2022-10-19T14:38:23;1.33;;;0.77;;
7961;SDS011;4026;43.652;24.906;2022-10-19T14:40:54;1.00;;;0.90;;
7961;SDS011;4026;43.652;24.906;2022-10-19T14:43:23;1.17;;;0.93;;
7961;SDS011;4026;43.652;24.906;2022-10-19T14:46:08;1.10;;;1.00;;
7961;SDS011;4026;43.652;24.906;2022-10-19T14:48:38;1.23;;;1.10;;
7961;SDS011;4026;43.652;24.906;2022-10-19T14:51:13;1.20;;;0.83;;
7961;SDS011;4026;43.652;24.906;2022-10-19T14:53:45;2.23;;;1.47;;
7961;SDS011;4026;43.652;24.906;2022-10-19T14:56:16;1.67;;;1.27;;
7961;SDS011;4026;43.652;24.906;2022-10-19T14:58:47;1.87;;;1.30;;
7961;SDS011;4026;43.652;24.906;2022-10-19T15:01:18;1.10;;;1.00;;
7961;SDS011;4026;43.652;24.906;2022-10-19T15:03:47;1.90;;;1.30;;
7961;SDS011;4026;43.652;24.906;2022-10-19T15:06:17;1.23;;;0.90;;
7961;SDS011;4026;43.652;24.906;2022-10-19T15:08:48;1.77;;;1.30;;
7961;SDS011;4026;43.652;24.906;2022-10-19T15:11:21;1.87;;;1.10;;
7961;SDS011;4026;43.652;24.906;2022-10-19T15:14:00;2.10;;;1.17;;
7961;SDS011;4026;43.652;24.906;2022-10-19T15:16:39;1.97;;;1.40;;
7961;SDS011;4026;43.652;24.906;2022-10-19T15:19:17;1.57;;;1.27;;
7961;SDS011;4026;43.652;24.906;2022-10-19T15:24:55;1.57;;;0.90;;
7961;SDS011;4026;43.652;24.906;2022-10-19T15:27:29;1.33;;;1.07;;
7961;SDS011;4026;43.652;24.906;2022-10-19T15:29:58;1.60;;;1.33;;
7961;SDS011;4026;43.652;24.906;2022-10-19T15:32:29;2.60;;;1.77;;
7961;SDS011;4026;43.652;24.906;2022-10-19T15:35:03;4.20;;;2.60;;
7961;SDS011;4026;43.652;24.906;2022-10-19T15:37:34;5.67;;;2.70;;
7961;SDS011;4026;43.652;24.906;2022-10-19T15:40:08;3.73;;;2.10;;